createdAt,value
2023-03-23T16:00:13.919Z,21.63
2023-03-23T16:02:47.008Z,21.66
2023-03-23T16:05:22.630Z,21.46
2023-03-23T16:07:56.913Z,21.37
2023-03-23T16:10:30.306Z,21.15
2023-03-23T16:13:04.430Z,20.88
2023-03-23T16:15:33.405Z,20.74
2023-03-23T16:18:10.881Z,20.60
2023-03-23T16:20:47.792Z,20.35
2023-03-23T16:23:29.690Z,20.38
2023-03-23T16:26:00.697Z,20.27
2023-03-23T16:28:37.343Z,20.18
2023-03-23T16:31:12.039Z,20.10
2023-03-23T16:33:49.076Z,20.00
2023-03-23T16:36:22.836Z,19.97
2023-03-23T16:38:57.029Z,19.83
2023-03-23T16:41:28.395Z,19.81
2023-03-23T16:43:58.564Z,19.76
2023-03-23T16:46:28.983Z,19.69
2023-03-23T16:49:00.882Z,19.59
2023-03-23T16:51:31.286Z,19.46
2023-03-23T16:54:06.405Z,19.50
2023-03-23T16:56:35.640Z,19.41
2023-03-23T16:59:10.837Z,19.36
2023-03-23T17:01:52.441Z,19.25
2023-03-23T17:04:34.197Z,19.18
2023-03-23T17:07:03.650Z,19.17
2023-03-23T17:09:37.238Z,19.10
2023-03-23T17:12:09.171Z,19.07
2023-03-23T17:14:41.498Z,19.16
2023-03-23T17:17:18.920Z,19.00
2023-03-23T17:20:00.922Z,18.94
2023-03-23T17:22:31.043Z,18.88
2023-03-23T17:25:10.318Z,18.88
2023-03-23T17:27:45.146Z,18.80
2023-03-23T17:30:18.336Z,18.73
2023-03-23T17:33:12.635Z,18.67
2023-03-23T17:35:47.982Z,18.61
2023-03-23T17:38:19.455Z,18.56
2023-03-23T17:41:08.221Z,18.56
2023-03-23T17:43:41.224Z,18.64
2023-03-23T17:46:11.954Z,18.57
2023-03-23T17:48:49.144Z,18.58
2023-03-23T17:51:22.171Z,18.55
2023-03-23T17:54:03.416Z,18.56
2023-03-23T17:56:35.114Z,18.57
2023-03-23T17:59:06.828Z,18.44
2023-03-23T18:01:49.796Z,18.34
2023-03-23T18:04:41.153Z,18.27
2023-03-23T18:07:24.873Z,18.36
2023-03-23T18:12:50.082Z,18.21
2023-03-23T18:15:28.249Z,18.25
2023-03-23T18:18:27.160Z,18.16
2023-03-23T18:21:29.956Z,18.13
2023-03-23T18:24:00.237Z,18.12
2023-03-23T18:26:41.283Z,18.09
2023-03-23T18:29:27.136Z,18.13
2023-03-23T18:32:22.084Z,18.08
2023-03-23T18:35:00.559Z,18.02
2023-03-23T18:37:40.144Z,18.03
2023-03-23T18:40:26.025Z,18.01
2023-03-23T18:43:01.021Z,18.02
2023-03-23T18:45:39.979Z,17.97
2023-03-23T18:48:28.664Z,17.93
2023-03-23T18:51:03.152Z,17.92
2023-03-23T18:53:50.185Z,17.84
2023-03-23T18:56:33.931Z,17.84
2023-03-23T18:59:09.712Z,17.86
2023-03-23T19:01:46.291Z,17.86
2023-03-23T19:04:27.769Z,17.83
2023-03-23T19:07:02.835Z,17.82
2023-03-23T19:09:38.050Z,17.77
2023-03-23T19:12:19.971Z,18.00
2023-03-23T19:15:02.727Z,17.93
2023-03-23T19:17:34.188Z,17.96
2023-03-23T19:20:07.211Z,17.93
2023-03-23T19:22:38.171Z,17.90
2023-03-23T19:25:28.939Z,17.87
2023-03-23T19:30:44.905Z,17.71
2023-03-23T19:33:20.124Z,17.67
2023-03-23T19:36:10.827Z,17.64
2023-03-23T19:38:49.280Z,17.63
2023-03-23T19:41:36.341Z,17.60
2023-03-23T19:44:14.576Z,17.59
2023-03-23T19:47:10.052Z,17.56
2023-03-23T19:50:08.277Z,17.50
2023-03-23T19:52:42.162Z,17.52
2023-03-23T19:55:15.757Z,17.50
2023-03-23T19:57:54.252Z,17.51
2023-03-23T20:00:35.841Z,17.49
2023-03-23T20:03:23.271Z,17.45
2023-03-23T20:06:10.061Z,17.43
2023-03-23T20:09:10.168Z,17.41
2023-03-23T20:11:43.842Z,17.37
2023-03-23T20:14:29.393Z,17.37
2023-03-23T20:17:03.733Z,17.35
2023-03-23T20:19:40.283Z,17.32
2023-03-23T20:22:15.053Z,17.28
2023-03-23T20:24:48.291Z,17.31
2023-03-23T20:27:23.398Z,17.27
2023-03-23T20:30:20.114Z,17.23
2023-03-23T20:32:59.613Z,17.26
2023-03-23T20:35:38.136Z,17.24
2023-03-23T20:38:09.539Z,17.28
2023-03-23T20:40:41.049Z,17.27
2023-03-23T20:43:17.518Z,17.26
2023-03-23T20:45:51.168Z,17.12
2023-03-23T20:48:28.621Z,17.13
2023-03-23T20:51:11.380Z,17.28
2023-03-23T20:53:41.417Z,17.19
2023-03-23T20:56:12.286Z,17.09
2023-03-23T20:58:48.882Z,16.86
2023-03-23T21:01:28.630Z,17.21
2023-03-23T21:04:16.754Z,17.11
2023-03-23T21:06:55.797Z,16.98
2023-03-23T21:09:26.141Z,16.98
2023-03-23T21:11:58.285Z,16.98
2023-03-23T21:14:28.245Z,16.96
2023-03-23T21:17:01.498Z,16.92
2023-03-23T21:19:37.926Z,16.89
2023-03-23T21:22:10.204Z,16.93
2023-03-23T21:24:41.181Z,16.90
2023-03-23T21:27:23.434Z,16.87
2023-03-23T21:29:57.450Z,16.82
2023-03-23T21:32:48.027Z,16.83
2023-03-23T21:35:30.205Z,16.82
2023-03-23T21:38:06.028Z,16.85
2023-03-23T21:40:48.556Z,16.85
2023-03-23T21:43:17.277Z,16.84
2023-03-23T21:45:47.936Z,16.83
2023-03-23T21:48:26.532Z,16.84
2023-03-23T21:50:57.740Z,16.79
2023-03-23T21:53:28.594Z,16.78
2023-03-23T21:56:07.530Z,16.83
2023-03-23T21:58:37.085Z,16.78
2023-03-23T22:01:12.283Z,16.80
2023-03-23T22:03:45.185Z,16.78
2023-03-23T22:06:18.543Z,16.95
2023-03-23T22:08:51.045Z,16.98
2023-03-23T22:11:23.452Z,16.79
2023-03-23T22:13:53.843Z,16.84
2023-03-23T22:16:24.288Z,17.02
2023-03-23T22:19:00.998Z,16.88
2023-03-23T22:21:32.334Z,16.97
2023-03-23T22:24:09.789Z,16.63
2023-03-23T22:26:39.161Z,16.64
2023-03-23T22:29:07.588Z,16.66
2023-03-23T22:31:42.620Z,16.67
2023-03-23T22:34:18.243Z,16.70
2023-03-23T22:36:50.101Z,16.71
2023-03-23T22:39:19.434Z,16.63
2023-03-23T22:41:59.038Z,16.56
2023-03-23T22:44:29.197Z,16.57
2023-03-23T22:46:58.400Z,16.58
2023-03-23T22:49:31.413Z,16.56
2023-03-23T22:52:05.178Z,16.47
2023-03-23T22:54:36.628Z,16.37
2023-03-23T22:57:08.305Z,16.44
2023-03-23T22:59:39.434Z,16.54
2023-03-23T23:02:11.292Z,16.49
2023-03-23T23:04:46.778Z,16.50
2023-03-23T23:07:21.300Z,16.50
2023-03-23T23:09:51.426Z,16.48
2023-03-23T23:12:30.346Z,16.43
2023-03-23T23:15:13.270Z,16.39
2023-03-23T23:17:44.169Z,16.33
2023-03-23T23:20:21.482Z,16.32
2023-03-23T23:22:50.876Z,16.29
2023-03-23T23:25:24.963Z,16.30
2023-03-23T23:27:54.630Z,16.26
2023-03-23T23:30:26.259Z,16.25
2023-03-23T23:32:56.871Z,16.18
2023-03-23T23:35:37.116Z,16.06
2023-03-23T23:38:07.337Z,16.05
2023-03-23T23:40:35.820Z,16.13
2023-03-23T23:43:16.077Z,16.20
2023-03-23T23:45:50.649Z,16.14
2023-03-23T23:48:26.721Z,16.10
2023-03-23T23:51:04.516Z,15.92
2023-03-23T23:53:34.915Z,15.96
2023-03-23T23:56:06.636Z,15.85
2023-03-23T23:58:35.995Z,15.94
